Time;durP1;ratioP1;P1;durP2;ratioP2;P2;SDS_P1;SDS_P2;PMS_P1;PMS_P2;Temp;Humidity;BMP_temperature;BMP_pressure;BME280_temperature;BME280_humidity;BME280_pressure;Samples;Min_cycle;Max_cycle;Signal;HPM_P1;HPM_P2
2023/01/20 00:01:29;;;;;;;;;;;;;;;18.43;61.31;100242.56;2379139;75;51440;-75
2023/01/20 00:04:31;;;;;;;;;;;;;;;18.39;61.42;100243.13;2369434;73;52307;-77
2023/01/20 00:07:34;;;;;;;;;;;;;;;18.33;61.45;100238.03;2354785;73;50134;-74
2023/01/20 00:10:36;;;;;;;;;;;;;;;18.29;61.66;100242.12;2328541;75;51055;-77
2023/01/20 00:13:38;;;;;;;;;;;;;;;18.28;61.74;100245.30;2378912;74;50749;-75
2023/01/20 00:16:39;;;;;;;;;;;;;;;18.32;61.72;100251.12;2354817;75;50705;-75
2023/01/20 00:19:41;;;;;;;;;;;;;;;18.35;61.67;100249.91;2354976;75;51502;-74
2023/01/20 00:22:43;;;;;;;;;;;;;;;18.38;61.72;100250.34;2328234;74;52369;-75
2023/01/20 00:25:44;;;;;;;;;;;;;;;18.42;61.75;100258.33;2379069;75;52139;-74
2023/01/20 00:28:46;;;;;;;;;;;;;;;18.47;61.70;100263.09;2354821;75;50677;-74
2023/01/20 00:31:47;;;;;;;;;;;;;;;18.52;61.61;100262.52;2379559;74;51570;-74
2023/01/20 00:34:49;;;;;;;;;;;;;;;18.54;61.58;100259.14;2365718;75;52353;-77
2023/01/20 00:37:51;;;;;;;;;;;;;;;18.52;61.59;100269.22;2354768;75;50361;-74
2023/01/20 00:40:55;;;;;;;;;;;;;;;18.48;61.64;100268.27;2379079;75;50306;-75
2023/01/20 00:43:57;;;;;;;;;;;;;;;18.44;61.74;100268.83;2379793;74;51469;-75
2023/01/20 00:46:58;;;;;;;;;;;;;;;18.39;61.83;100270.73;2331771;74;51217;-76
2023/01/20 00:50:00;;;;;;;;;;;;;;;18.36;61.91;100276.48;2358200;74;50692;-74
2023/01/20 00:53:01;;;;;;;;;;;;;;;18.32;62.03;100277.08;2380808;74;50291;-75
2023/01/20 00:56:03;;;;;;;;;;;;;;;18.28;62.34;100277.44;2320266;75;50369;-75
2023/01/20 00:59:04;;;;;;;;;;;;;;;18.28;62.44;100277.95;2316717;75;51191;-75
2023/01/20 01:02:06;;;;;;;;;;;;;;;18.35;62.31;100281.53;2335596;74;50392;-74
2023/01/20 01:05:08;;;;;;;;;;;;;;;18.38;62.32;100282.48;2336816;75;50691;-74
2023/01/20 01:08:10;;;;;;;;;;;;;;;18.44;62.23;100288.92;2318462;75;51509;-74
2023/01/20 01:11:12;;;;;;;;;;;;;;;18.50;62.08;100296.22;2318349;76;51007;-76
2023/01/20 01:14:13;;;;;;;;;;;;;;;18.51;61.91;100296.52;2340587;74;50717;-76
2023/01/20 01:17:15;;;;;;;;;;;;;;;18.52;61.85;100298.69;2320704;75;51334;-74
2023/01/20 01:20:17;;;;;;;;;;;;;;;18.48;61.86;100300.41;2340457;76;50435;-75
2023/01/20 01:23:18;;;;;;;;;;;;;;;18.45;61.87;100304.00;2343271;75;51106;-74
2023/01/20 01:26:20;;;;;;;;;;;;;;;18.40;61.93;100301.06;2340432;76;50651;-74
2023/01/20 01:29:21;;;;;;;;;;;;;;;18.35;62.00;100303.48;2340481;76;50342;-75
2023/01/20 01:32:23;;;;;;;;;;;;;;;18.28;62.09;100304.22;2339221;74;50298;-75
2023/01/20 01:35:25;;;;;;;;;;;;;;;18.23;62.24;100310.65;2342570;74;51194;-76
2023/01/20 01:38:26;;;;;;;;;;;;;;;18.22;62.30;100314.87;2367030;73;50671;-76
2023/01/20 01:41:28;;;;;;;;;;;;;;;18.24;62.32;100319.02;2389919;73;50218;-76
2023/01/20 01:44:30;;;;;;;;;;;;;;;18.31;62.22;100320.42;2364440;73;50357;-77
2023/01/20 01:47:32;;;;;;;;;;;;;;;18.35;62.21;100318.21;2345372;74;51028;-76
2023/01/20 01:50:38;;;;;;;;;;;;;;;18.40;62.13;100317.95;2368562;74;51467;-76
2023/01/20 01:53:41;;;;;;;;;;;;;;;18.45;62.08;100325.43;2345243;74;50337;-76
2023/01/20 01:56:43;;;;;;;;;;;;;;;18.49;61.95;100332.05;2378666;74;51609;-76
2023/01/20 01:59:45;;;;;;;;;;;;;;;18.52;61.83;100326.30;2358227;74;51312;-76
2023/01/20 02:02:46;;;;;;;;;;;;;;;18.50;61.78;100339.91;2380554;73;50441;-76
2023/01/20 02:05:48;;;;;;;;;;;;;;;18.47;61.79;100336.27;2381155;73;50243;-76
2023/01/20 02:08:50;;;;;;;;;;;;;;;18.42;61.85;100348.06;2371553;73;51581;-76
2023/01/20 02:11:52;;;;;;;;;;;;;;;18.39;61.83;100347.08;2337062;75;52375;-74
2023/01/20 02:14:55;;;;;;;;;;;;;;;18.35;61.95;100347.16;2340277;76;50515;-75
2023/01/20 02:17:58;;;;;;;;;;;;;;;18.30;62.05;100350.91;2344778;74;51547;-75
2023/01/20 02:21:18;;;;;;;;;;;;;;;18.25;62.25;100357.34;2338942;74;51620;-76
2023/01/20 02:24:27;;;;;;;;;;;;;;;18.26;62.27;100361.66;2343009;74;52588;-76
2023/01/20 02:27:49;;;;;;;;;;;;;;;18.31;62.23;100364.61;2340360;75;50707;-76
2023/01/20 02:31:09;;;;;;;;;;;;;;;18.39;62.03;100370.37;2342768;74;50688;-76
2023/01/20 02:34:19;;;;;;;;;;;;;;;18.45;61.96;100381.69;2340042;74;50276;-76
2023/01/20 02:37:19;;;;;;;;;;;;;;;18.49;61.75;100385.12;2354397;74;22286;-76
2023/01/20 02:40:22;;;;;;;;;;;;;;;18.49;61.66;100387.80;2377191;73;52434;-76
2023/01/20 02:43:25;;;;;;;;;;;;;;;18.47;61.70;100399.72;2338627;74;52543;-77
2023/01/20 02:46:32;;;;;;;;;;;;;;;18.44;61.76;100404.12;2339251;75;51627;-76
2023/01/20 02:49:38;;;;;;;;;;;;;;;18.40;61.84;100408.21;2365910;73;51535;-76
2023/01/20 02:52:41;;;;;;;;;;;;;;;18.34;61.90;100421.84;2380095;73;50699;-77
2023/01/20 02:55:49;;;;;;;;;;;;;;;18.30;62.00;100412.52;2381099;74;51501;-77
2023/01/20 02:58:52;;;;;;;;;;;;;;;18.26;62.09;100416.57;2381050;73;50468;-76
2023/01/20 03:01:55;;;;;;;;;;;;;;;18.20;62.23;100415.98;2355844;74;50872;-75
2023/01/20 03:05:04;;;;;;;;;;;;;;;18.21;62.26;100416.30;2377016;73;51623;-76
2023/01/20 03:08:06;;;;;;;;;;;;;;;18.24;62.20;100412.76;2387603;73;51616;-76
2023/01/20 03:11:08;;;;;;;;;;;;;;;18.31;62.12;100422.71;2379616;73;50208;-76
2023/01/20 03:14:13;;;;;;;;;;;;;;;18.35;61.99;100412.78;2340422;74;51539;-76
2023/01/20 03:17:14;;;;;;;;;;;;;;;18.37;61.96;100419.27;2341279;74;51570;-77
2023/01/20 03:20:16;;;;;;;;;;;;;;;18.43;61.90;100424.73;2340568;76;51568;-77
2023/01/20 03:23:17;;;;;;;;;;;;;;;18.46;61.76;100423.52;2342537;74;51472;-76
2023/01/20 03:26:19;;;;;;;;;;;;;;;18.45;61.75;100424.04;2343786;74;52362;-75
2023/01/20 03:29:21;;;;;;;;;;;;;;;18.45;61.74;100426.72;2340639;75;50859;-77
2023/01/20 03:32:25;;;;;;;;;;;;;;;18.42;61.79;100436.47;2342574;74;51640;-75
2023/01/20 03:35:26;;;;;;;;;;;;;;;18.37;61.86;100438.88;2340878;75;22761;-75
2023/01/20 03:38:27;;;;;;;;;;;;;;;18.32;61.97;100446.64;2378692;73;51223;-74
2023/01/20 03:41:47;;;;;;;;;;;;;;;18.29;62.02;100449.70;2422908;73;50282;-75
2023/01/20 03:45:02;;;;;;;;;;;;;;;18.22;62.09;100458.15;2424234;73;51482;-74
2023/01/20 03:48:12;;;;;;;;;;;;;;;18.17;62.34;100456.53;2424126;73;51493;-75
2023/01/20 03:51:15;;;;;;;;;;;;;;;18.18;62.45;100454.16;2390164;72;52506;-74
2023/01/20 03:54:18;;;;;;;;;;;;;;;18.26;62.32;100451.39;2423894;73;50707;-74
2023/01/20 03:57:21;;;;;;;;;;;;;;;18.36;62.14;100456.47;2424334;73;51570;-75
2023/01/20 04:00:23;;;;;;;;;;;;;;;18.41;62.10;100460.24;2424384;73;50387;-74
2023/01/20 04:03:29;;;;;;;;;;;;;;;18.45;62.00;100466.91;2368678;73;51320;-74
2023/01/20 04:06:30;;;;;;;;;;;;;;;18.46;61.95;100470.41;2423221;73;51548;-74
2023/01/20 04:09:32;;;;;;;;;;;;;;;18.44;61.92;100475.11;2424193;73;52406;-75
2023/01/20 04:12:34;;;;;;;;;;;;;;;18.41;61.91;100476.31;2347069;74;50783;-74
2023/01/20 04:15:36;;;;;;;;;;;;;;;18.37;61.94;100476.38;2333850;75;52670;-75
2023/01/20 04:18:41;;;;;;;;;;;;;;;18.33;61.99;100480.44;2340580;76;50020;-75
2023/01/20 04:21:44;;;;;;;;;;;;;;;18.30;62.08;100480.81;2340430;75;50412;-77
2023/01/20 04:24:47;;;;;;;;;;;;;;;18.23;62.14;100485.23;2340123;76;51566;-75
2023/01/20 04:27:49;;;;;;;;;;;;;;;18.19;62.31;100493.34;2306099;76;52649;-74
2023/01/20 04:30:50;;;;;;;;;;;;;;;18.20;62.32;100496.33;2306173;75;51655;-74
2023/01/20 04:33:52;;;;;;;;;;;;;;;18.23;62.26;100492.76;2368275;74;51519;-76
2023/01/20 04:36:53;;;;;;;;;;;;;;;18.31;62.13;100491.84;2349913;74;50288;-74
2023/01/20 04:39:55;;;;;;;;;;;;;;;18.34;62.02;100486.14;2342047;75;53308;-74
2023/01/20 04:42:56;;;;;;;;;;;;;;;18.42;61.90;100495.89;2378888;75;50283;-75
2023/01/20 04:45:58;;;;;;;;;;;;;;;18.44;61.81;100505.41;2354860;75;50321;-74
2023/01/20 04:49:00;;;;;;;;;;;;;;;18.44;61.74;100502.73;2371451;74;50637;-74
2023/01/20 04:52:01;;;;;;;;;;;;;;;18.43;61.68;100501.08;2380204;73;50673;-76
2023/01/20 04:55:03;;;;;;;;;;;;;;;18.40;61.69;100509.49;2428932;73;52445;-75
2023/01/20 04:58:04;;;;;;;;;;;;;;;18.37;61.81;100512.55;2390284;73;50291;-75
2023/01/20 05:01:06;;;;;;;;;;;;;;;18.34;61.85;100515.60;2397636;73;50397;-75
2023/01/20 05:04:08;;;;;;;;;;;;;;;18.30;61.90;100515.63;2360159;74;51611;-75
2023/01/20 05:07:09;;;;;;;;;;;;;;;18.23;62.02;100513.36;2356671;74;50727;-75
2023/01/20 05:10:11;;;;;;;;;;;;;;;18.16;62.17;100522.66;2381113;74;50357;-75
2023/01/20 05:13:12;;;;;;;;;;;;;;;18.16;62.24;100527.16;2380908;74;50660;-76
2023/01/20 05:16:14;;;;;;;;;;;;;;;18.22;62.26;100533.96;2331787;74;52478;-75
2023/01/20 05:19:16;;;;;;;;;;;;;;;18.27;62.17;100546.30;2358201;74;50406;-75
2023/01/20 05:22:17;;;;;;;;;;;;;;;18.36;61.99;100551.05;2380949;74;50233;-75
2023/01/20 05:25:19;;;;;;;;;;;;;;;18.42;61.90;100557.51;2358135;74;49891;-75
2023/01/20 05:28:20;;;;;;;;;;;;;;;18.46;61.80;100560.16;2331443;74;51877;-75
2023/01/20 05:31:22;;;;;;;;;;;;;;;18.45;61.71;100561.19;2391716;73;51570;-78
2023/01/20 05:34:24;;;;;;;;;;;;;;;18.41;61.73;100563.38;2381391;73;52430;-72
2023/01/20 05:37:25;;;;;;;;;;;;;;;18.38;61.79;100577.15;2356783;74;50700;-73
2023/01/20 05:40:27;;;;;;;;;;;;;;;18.34;61.82;100575.87;2342211;75;49583;-73
2023/01/20 05:43:28;;;;;;;;;;;;;;;18.30;61.89;100577.23;2354770;74;50782;-74
2023/01/20 05:46:30;;;;;;;;;;;;;;;18.27;61.98;100588.33;2373042;74;51640;-74
2023/01/20 05:49:32;;;;;;;;;;;;;;;18.22;62.03;100592.05;2318437;76;50743;-74
2023/01/20 05:52:33;;;;;;;;;;;;;;;18.15;62.28;100595.12;2292125;76;52514;-75
2023/01/20 05:55:35;;;;;;;;;;;;;;;18.16;62.31;100595.44;2320712;75;52564;-75
2023/01/20 05:58:36;;;;;;;;;;;;;;;18.22;62.17;100599.58;2372318;74;51463;-74
2023/01/20 06:01:39;;;;;;;;;;;;;;;18.27;62.10;100604.39;2380891;74;51380;-75
2023/01/20 06:04:40;;;;;;;;;;;;;;;18.32;61.98;100606.02;2317913;76;50179;-78
2023/01/20 06:07:42;;;;;;;;;;;;;;;18.38;61.84;100611.98;2344862;73;52468;-77
2023/01/20 06:10:44;;;;;;;;;;;;;;;18.43;61.77;100621.64;2359895;74;50382;-78
2023/01/20 06:13:49;;;;;;;;;;;;;;;18.44;61.69;100620.61;2355073;74;50674;-77
2023/01/20 06:16:50;;;;;;;;;;;;;;;18.45;61.61;100625.48;2348966;75;51265;-78
2023/01/20 06:19:52;;;;;;;;;;;;;;;18.43;61.64;100627.51;2364446;74;50269;-77
2023/01/20 06:22:54;;;;;;;;;;;;;;;18.40;61.69;100639.42;2340116;75;50783;-78
2023/01/20 06:26:00;;;;;;;;;;;;;;;18.36;61.75;100637.28;2360066;74;51611;-78
2023/01/20 06:29:01;;;;;;;;;;;;;;;18.31;61.83;100639.16;2360578;74;51549;-78
2023/01/20 06:32:03;;;;;;;;;;;;;;;18.26;61.88;100646.91;2380999;74;51484;-78
2023/01/20 06:35:05;;;;;;;;;;;;;;;18.21;62.02;100660.00;2381166;73;51418;-78
2023/01/20 06:38:06;;;;;;;;;;;;;;;18.16;62.18;100658.38;2351504;74;50098;-78
2023/01/20 06:41:10;;;;;;;;;;;;;;;18.20;62.17;100665.05;2369114;73;51514;-77
2023/01/20 06:44:11;;;;;;;;;;;;;;;18.27;62.06;100670.02;2429992;72;51665;-77
2023/01/20 06:47:13;;;;;;;;;;;;;;;18.34;61.82;100685.70;2400102;73;51531;-78
2023/01/20 06:50:15;;;;;;;;;;;;;;;18.16;56.92;100679.80;2340870;75;51549;-78
2023/01/20 06:53:17;;;;;;;;;;;;;;;18.09;56.50;100686.39;2292832;76;52592;-78
2023/01/20 06:56:18;;;;;;;;;;;;;;;18.11;56.81;100692.89;2318709;76;51445;-78
2023/01/20 06:59:20;;;;;;;;;;;;;;;18.09;57.17;100694.94;2318685;76;53581;-78
2023/01/20 07:02:21;;;;;;;;;;;;;;;18.07;57.37;100701.80;2337547;74;51560;-77
2023/01/20 07:05:23;;;;;;;;;;;;;;;18.04;57.62;100701.64;2326898;74;52435;-77
2023/01/20 07:08:24;;;;;;;;;;;;;;;18.00;58.04;100708.36;2342243;74;50734;-77
2023/01/20 07:11:27;;;;;;;;;;;;;;;18.03;58.24;100715.20;2343399;74;50410;-77
2023/01/20 07:14:29;;;;;;;;;;;;;;;18.05;58.92;100723.38;2369206;74;50710;-77
2023/01/20 07:17:31;;;;;;;;;;;;;;;18.11;59.31;100730.38;2337499;73;51070;-77
2023/01/20 07:20:32;;;;;;;;;;;;;;;18.16;59.47;100736.03;2325993;75;51585;-77
2023/01/20 07:23:34;;;;;;;;;;;;;;;18.21;59.38;100739.87;2319261;76;50214;-76
2023/01/20 07:26:36;;;;;;;;;;;;;;;18.27;59.53;100752.53;2324690;74;51625;-79
2023/01/20 07:29:37;;;;;;;;;;;;;;;18.32;59.81;100757.36;2320222;74;51064;-76
2023/01/20 07:32:39;;;;;;;;;;;;;;;18.39;59.61;100755.61;2380719;74;50480;-76
2023/01/20 07:35:40;;;;;;;;;;;;;;;18.44;59.43;100754.56;2327995;75;50110;-76
2023/01/20 07:38:42;;;;;;;;;;;;;;;18.43;59.45;100755.59;2340457;74;50529;-76
2023/01/20 07:41:47;;;;;;;;;;;;;;;18.42;59.55;100761.98;2332058;75;51733;-76
2023/01/20 07:44:47;;;;;;;;;;;;;;;18.38;59.59;100765.19;2364456;73;22388;-76
2023/01/20 07:47:48;;;;;;;;;;;;;;;18.35;59.67;100773.08;2354593;75;50317;-77
2023/01/20 07:50:51;;;;;;;;;;;;;;;18.30;59.74;100775.45;2355065;74;51546;-78
2023/01/20 07:53:53;;;;;;;;;;;;;;;18.31;60.08;100773.09;2357713;74;52515;-78
2023/01/20 07:56:55;;;;;;;;;;;;;;;18.34;60.11;100783.95;2381221;74;50401;-78
2023/01/20 07:59:56;;;;;;;;;;;;;;;18.33;60.23;100776.94;2374651;74;50324;-78
2023/01/20 08:02:58;;;;;;;;;;;;;;;18.35;60.28;100781.11;2340825;76;50691;-77
2023/01/20 08:06:01;;;;;;;;;;;;;;;18.42;60.11;100783.89;2293594;76;51234;-76
2023/01/20 08:09:03;;;;;;;;;;;;;;;18.53;59.76;100789.36;2340926;75;50448;-76
2023/01/20 08:12:04;;;;;;;;;;;;;;;18.56;59.54;100785.81;2319326;76;50385;-77
2023/01/20 08:15:08;;;;;;;;;;;;;;;18.59;59.38;100793.48;2382618;73;50987;-76
2023/01/20 08:18:10;;;;;;;;;;;;;;;18.53;59.46;100795.55;2362811;73;51756;-76
2023/01/20 08:21:13;;;;;;;;;;;;;;;18.50;59.47;100802.10;2422995;73;50305;-76
2023/01/20 08:24:14;;;;;;;;;;;;;;;18.46;59.58;100804.80;2420717;73;50407;-76
2023/01/20 08:27:16;;;;;;;;;;;;;;;18.43;59.59;100808.35;2424524;73;50761;-76
2023/01/20 08:30:18;;;;;;;;;;;;;;;18.39;59.64;100815.06;2362756;73;52607;-77
2023/01/20 08:33:19;;;;;;;;;;;;;;;18.34;59.76;100816.10;2424196;73;50654;-76
2023/01/20 08:36:23;;;;;;;;;;;;;;;18.33;59.76;100829.18;2424457;73;51541;-76
2023/01/20 08:39:24;;;;;;;;;;;;;;;18.33;59.75;100816.61;2424595;73;51421;-76
2023/01/20 08:42:26;;;;;;;;;;;;;;;18.34;59.73;100831.70;2362622;73;52316;-76
2023/01/20 08:45:27;;;;;;;;;;;;;;;18.37;59.59;100832.67;2396254;72;50279;-76
2023/01/20 08:48:29;;;;;;;;;;;;;;;18.42;59.53;100834.31;2379589;74;50311;-77
2023/01/20 08:51:31;;;;;;;;;;;;;;;18.45;59.46;100832.61;2373661;73;51583;-76
2023/01/20 08:54:33;;;;;;;;;;;;;;;18.49;59.48;100837.92;2311405;75;49678;-76
2023/01/20 08:57:35;;;;;;;;;;;;;;;18.56;59.38;100841.26;2372954;73;51504;-77
2023/01/20 09:00:36;;;;;;;;;;;;;;;18.67;59.21;100846.19;2372977;75;52222;-77
2023/01/20 09:03:38;;;;;;;;;;;;;;;18.65;59.22;100852.23;2337590;75;51504;-77
2023/01/20 09:06:45;;;;;;;;;;;;;;;18.65;59.24;100851.75;2337698;75;49740;-76
2023/01/20 09:09:46;;;;;;;;;;;;;;;18.56;59.42;100858.16;2372993;75;50686;-76
2023/01/20 09:12:48;;;;;;;;;;;;;;;18.52;59.58;100859.52;2381027;73;50758;-78
2023/01/20 09:15:52;;;;;;;;;;;;;;;18.44;59.76;100871.12;2354952;73;51583;-76
2023/01/20 09:18:54;;;;;;;;;;;;;;;18.38;59.93;100879.88;2356907;75;51813;-77
2023/01/20 09:21:55;;;;;;;;;;;;;;;18.34;60.06;100885.75;2355752;73;51511;-76
2023/01/20 09:24:57;;;;;;;;;;;;;;;18.27;60.25;100891.82;2347703;74;50784;-76
2023/01/20 09:28:02;;;;;;;;;;;;;;;18.33;60.05;100892.95;2320141;76;51477;-76
2023/01/20 09:31:04;;;;;;;;;;;;;;;18.40;59.79;100899.29;2344191;75;51931;-76
2023/01/20 09:34:06;;;;;;;;;;;;;;;18.49;59.66;100902.75;2342523;74;51614;-76
2023/01/20 09:43:55;;;;;;;;;;;;;;;18.56;59.48;100913.09;2377912;74;22181;-75
2023/01/20 09:47:20;;;;;;;;;;;;;;;18.53;59.48;100918.81;2379821;74;51596;-76
2023/01/20 09:53:53;;;;;;;;;;;;;;;18.38;59.97;100925.41;2380597;74;22590;-76
2023/01/20 09:56:56;;;;;;;;;;;;;;;18.35;60.04;100925.77;2356203;74;52635;-75
2023/01/20 10:00:01;;;;;;;;;;;;;;;18.28;60.18;100918.92;2381429;73;50345;-76
2023/01/20 10:03:04;;;;;;;;;;;;;;;18.30;60.09;100925.97;2372914;73;50707;-76
2023/01/20 10:06:08;;;;;;;;;;;;;;;18.33;59.93;100929.64;2342938;74;50690;-75
2023/01/20 10:09:11;;;;;;;;;;;;;;;18.38;59.75;100929.95;2363452;75;51859;-76
2023/01/20 10:12:14;;;;;;;;;;;;;;;18.41;59.59;100938.45;2365739;74;50822;-76
2023/01/20 10:15:18;;;;;;;;;;;;;;;18.43;59.54;100940.47;2374413;73;51516;-77
2023/01/20 10:18:21;;;;;;;;;;;;;;;18.46;59.47;100940.11;2377376;73;50797;-76
2023/01/20 10:21:34;;;;;;;;;;;;;;;18.46;59.46;100944.12;2355753;74;52436;-76
2023/01/20 10:24:36;;;;;;;;;;;;;;;18.56;59.18;100953.30;2379539;73;50852;-76
2023/01/20 10:27:39;;;;;;;;;;;;;;;18.57;59.13;100946.09;2350264;74;51538;-76
2023/01/20 10:30:41;;;;;;;;;;;;;;;18.53;59.22;100944.27;2340166;75;51539;-76
2023/01/20 10:33:44;;;;;;;;;;;;;;;18.48;59.25;100938.09;2339890;74;50356;-75
2023/01/20 10:36:47;;;;;;;;;;;;;;;18.46;59.32;100941.45;2342313;75;51591;-75
2023/01/20 10:40:08;;;;;;;;;;;;;;;18.40;59.46;100944.84;2370516;74;52619;-75
2023/01/20 10:43:11;;;;;;;;;;;;;;;18.37;59.55;100945.67;2377392;74;50724;-74
2023/01/20 10:46:24;;;;;;;;;;;;;;;18.33;59.67;100948.39;2357658;74;51786;-76
2023/01/20 10:49:44;;;;;;;;;;;;;;;18.31;59.69;100947.20;2357803;73;52587;-75
2023/01/20 10:52:50;;;;;;;;;;;;;;;18.33;59.65;100953.74;2380587;74;50313;-75
2023/01/20 10:56:12;;;;;;;;;;;;;;;18.38;59.51;100956.23;2344817;74;50696;-73
2023/01/20 10:59:14;;;;;;;;;;;;;;;18.49;59.18;100955.00;2339892;75;50338;-71
2023/01/20 11:02:20;;;;;;;;;;;;;;;18.57;59.06;100963.50;2342793;74;52460;-73
2023/01/20 11:05:24;;;;;;;;;;;;;;;18.55;59.06;100964.17;2361508;74;50717;-73
2023/01/20 11:08:26;;;;;;;;;;;;;;;18.49;59.17;100961.19;2390626;72;50355;-73
2023/01/20 11:11:28;;;;;;;;;;;;;;;18.47;59.24;100957.88;2380417;73;51489;-71
2023/01/20 11:14:30;;;;;;;;;;;;;;;18.44;59.32;100964.89;2355340;74;51813;-71
2023/01/20 11:17:32;;;;;;;;;;;;;;;18.43;59.32;100958.39;2378601;75;50315;-72
2023/01/20 11:20:34;;;;;;;;;;;;;;;18.38;59.47;100966.11;2378635;75;50583;-73
2023/01/20 11:23:43;;;;;;;;;;;;;;;18.36;59.51;100969.47;2377700;73;50356;-73
2023/01/20 11:26:45;;;;;;;;;;;;;;;18.32;59.67;100968.16;2358263;74;53015;-72
2023/01/20 11:29:48;;;;;;;;;;;;;;;18.33;59.61;100961.78;2355291;73;51452;-73
2023/01/20 11:33:08;;;;;;;;;;;;;;;18.37;59.51;100970.64;2358207;73;51577;-73
2023/01/20 11:36:17;;;;;;;;;;;;;;;18.42;59.42;100965.59;2345514;74;50456;-73
2023/01/20 11:39:26;;;;;;;;;;;;;;;18.43;59.40;100967.77;2349591;72;51824;-72
2023/01/20 11:42:29;;;;;;;;;;;;;;;18.49;59.40;100971.91;2423731;73;50394;-73
2023/01/20 11:45:33;;;;;;;;;;;;;;;18.55;59.29;100972.22;2424227;72;50792;-73
2023/01/20 11:48:34;;;;;;;;;;;;;;;18.60;59.06;100969.84;2424266;72;50773;-73
2023/01/20 11:51:38;;;;;;;;;;;;;;;18.55;59.18;100970.88;2368207;74;52482;-73
2023/01/20 11:54:39;;;;;;;;;;;;;;;18.52;59.50;100973.91;2379875;73;51580;-73
2023/01/20 11:57:45;;;;;;;;;;;;;;;18.49;59.68;100977.78;2380797;74;51518;-73
2023/01/20 12:00:47;;;;;;;;;;;;;;;18.43;60.04;100973.95;2380742;73;50673;-73
2023/01/20 12:04:06;;;;;;;;;;;;;;;18.36;60.27;100977.50;2357780;74;51073;-73
2023/01/20 12:07:12;;;;;;;;;;;;;;;18.38;60.37;100979.00;2380451;73;50312;-74
2023/01/20 12:10:19;;;;;;;;;;;;;;;18.37;60.33;100988.05;2378776;75;51541;-74
2023/01/20 12:14:18;;;;;;;;;;;;;;;18.42;60.09;100984.35;2378560;73;50854;-73
2023/01/20 12:16:34;;;;;;;;;;;;;;;18.46;59.89;100997.72;2375354;73;22283;-73
2023/01/20 12:19:54;;;;;;;;;;;;;;;18.52;59.86;100998.03;2378950;74;51593;-74
2023/01/20 12:23:13;;;;;;;;;;;;;;;18.56;59.77;101006.06;2378589;75;51637;-73
2023/01/20 12:26:15;;;;;;;;;;;;;;;18.56;59.85;101007.41;2378834;75;50563;-73
2023/01/20 12:29:27;;;;;;;;;;;;;;;18.54;59.86;101008.08;2378822;75;51607;-74
2023/01/20 12:32:32;;;;;;;;;;;;;;;18.47;59.91;101012.80;2378358;74;50366;-73
2023/01/20 12:35:33;;;;;;;;;;;;;;;18.45;59.99;101016.16;2379026;73;22287;-73
2023/01/20 12:38:36;;;;;;;;;;;;;;;18.36;60.68;101026.55;2394304;73;50783;-73
2023/01/20 12:41:58;;;;;;;;;;;;;;;18.32;60.82;101025.25;2355679;75;51792;-73
2023/01/20 12:45:20;;;;;;;;;;;;;;;18.28;60.90;101031.94;2378753;74;51703;-73
2023/01/20 12:48:38;;;;;;;;;;;;;;;18.28;60.90;101043.48;2378806;75;50352;-73
2023/01/20 12:51:41;;;;;;;;;;;;;;;18.38;60.62;101038.45;2378914;74;50221;-74
2023/01/20 12:54:51;;;;;;;;;;;;;;;18.45;60.35;101042.95;2355581;75;51318;-73
2023/01/20 12:58:11;;;;;;;;;;;;;;;18.53;60.06;101050.63;2378670;74;51600;-73
2023/01/20 13:01:17;;;;;;;;;;;;;;;18.56;60.00;101056.47;2378931;75;50354;-73
2023/01/20 13:04:23;;;;;;;;;;;;;;;18.63;59.79;101053.95;2383765;73;50776;-74
2023/01/20 13:07:26;;;;;;;;;;;;;;;18.66;59.75;101057.62;2357407;74;49701;-73
2023/01/20 13:10:38;;;;;;;;;;;;;;;18.66;59.71;101071.02;2378840;74;50423;-74
2023/01/20 13:13:44;;;;;;;;;;;;;;;18.65;59.68;101072.87;2378520;74;51661;-73
2023/01/20 13:16:50;;;;;;;;;;;;;;;18.58;59.80;101069.20;2378930;75;50730;-72
2023/01/20 13:19:52;;;;;;;;;;;;;;;18.58;59.90;101073.22;2355894;75;51595;-72
2023/01/20 13:22:54;;;;;;;;;;;;;;;18.50;60.01;101067.89;2378560;74;51613;-73
2023/01/20 13:25:56;;;;;;;;;;;;;;;18.43;60.23;101070.41;2378748;73;50837;-72
2023/01/20 13:28:59;;;;;;;;;;;;;;;18.35;60.41;101075.80;2378875;73;50335;-72
2023/01/20 13:32:01;;;;;;;;;;;;;;;18.39;60.33;101078.45;2327693;75;52541;-73
2023/01/20 13:35:17;;;;;;;;;;;;;;;18.46;60.08;101077.27;2394155;72;50454;-72
2023/01/20 13:38:20;;;;;;;;;;;;;;;18.59;59.71;101082.09;2378823;74;50307;-73
2023/01/20 13:41:39;;;;;;;;;;;;;;;18.60;59.67;101085.95;2377130;74;50306;-72
2023/01/20 13:44:41;;;;;;;;;;;;;;;18.64;59.62;101083.75;2355658;74;51070;-73
2023/01/20 13:47:47;;;;;;;;;;;;;;;18.75;59.30;101092.78;2378884;74;50407;-73
2023/01/20 13:50:50;;;;;;;;;;;;;;;18.69;59.42;101096.12;2378881;74;51584;-72
2023/01/20 13:53:52;;;;;;;;;;;;;;;18.69;59.41;101099.64;2378488;75;50417;-72
2023/01/20 13:56:55;;;;;;;;;;;;;;;18.68;59.36;101097.98;2355900;75;49321;-73
2023/01/20 13:59:56;;;;;;;;;;;;;;;18.63;59.43;101095.49;2378561;74;50476;-72
2023/01/20 14:02:58;;;;;;;;;;;;;;;18.56;59.58;101103.38;2354425;74;50669;-72
2023/01/20 14:06:01;;;;;;;;;;;;;;;18.48;59.69;101101.55;2369153;74;50674;-72
2023/01/20 14:09:04;;;;;;;;;;;;;;;18.44;59.78;101102.05;2376772;73;51625;-72
2023/01/20 14:12:07;;;;;;;;;;;;;;;18.47;59.66;101105.72;2354418;75;51605;-72
2023/01/20 14:15:25;;;;;;;;;;;;;;;18.46;59.66;101104.90;2378837;74;51538;-72
2023/01/20 14:18:26;;;;;;;;;;;;;;;18.49;59.55;101109.91;2354594;75;51627;-74
2023/01/20 14:21:29;;;;;;;;;;;;;;;18.54;59.40;101118.78;2355910;75;52357;-72
2023/01/20 14:24:32;;;;;;;;;;;;;;;18.64;59.13;101111.89;2378611;73;50687;-74
2023/01/20 14:27:40;;;;;;;;;;;;;;;18.66;59.10;101119.27;2378993;75;51454;-74
2023/01/20 14:30:37;;;;;;;;;;;;;;;18.70;59.00;101123.25;2378396;74;23200;-74
2023/01/20 14:33:45;;;;;;;;;;;;;;;18.67;59.00;101129.80;2379533;73;50346;-74
2023/01/20 14:36:47;;;;;;;;;;;;;;;18.65;59.04;101141.70;2363754;74;51539;-75
2023/01/20 14:39:48;;;;;;;;;;;;;;;18.60;59.11;101138.22;2393848;73;50769;-74
2023/01/20 14:42:57;;;;;;;;;;;;;;;18.62;59.00;101144.22;2378522;75;51485;-74
2023/01/20 14:45:59;;;;;;;;;;;;;;;18.56;59.13;101162.33;2328128;75;51235;-74
2023/01/20 14:49:00;;;;;;;;;;;;;;;18.52;59.21;101160.98;2378902;75;50663;-75
2023/01/20 14:52:02;;;;;;;;;;;;;;;18.43;59.42;101159.34;2378689;75;50442;-75
2023/01/20 14:55:04;;;;;;;;;;;;;;;18.41;59.43;101162.69;2354481;75;51585;-74
2023/01/20 14:58:13;;;;;;;;;;;;;;;18.49;59.18;101172.88;2328286;75;49368;-73
2023/01/20 15:01:16;;;;;;;;;;;;;;;18.51;59.11;101176.74;2378854;75;51482;-74
2023/01/20 15:04:18;;;;;;;;;;;;;;;18.56;58.97;101182.44;2376923;74;50888;-73
2023/01/20 15:07:20;;;;;;;;;;;;;;;18.60;58.84;101181.09;2378884;74;51443;-74
2023/01/20 15:10:21;;;;;;;;;;;;;;;18.67;58.67;101182.58;2377263;73;51707;-75
2023/01/20 15:13:29;;;;;;;;;;;;;;;18.71;58.49;101188.77;2389987;73;51428;-73
2023/01/20 15:16:40;;;;;;;;;;;;;;;18.68;58.51;101195.82;2424453;73;22395;-75
2023/01/20 15:19:44;;;;;;;;;;;;;;;18.64;58.63;101200.34;2424427;73;22279;-73
2023/01/20 15:22:46;;;;;;;;;;;;;;;18.59;58.73;101206.72;2389945;73;51048;-76
2023/01/20 15:25:48;;;;;;;;;;;;;;;18.53;58.79;101202.05;2424232;73;51420;-73
2023/01/20 15:28:50;;;;;;;;;;;;;;;18.44;58.94;101212.75;2424188;73;50758;-74
2023/01/20 15:31:51;;;;;;;;;;;;;;;18.41;59.06;101213.59;2390013;73;53468;-73
2023/01/20 15:34:53;;;;;;;;;;;;;;;18.35;59.14;101223.14;2361914;73;51693;-74
2023/01/20 15:37:55;;;;;;;;;;;;;;;18.39;59.03;101219.11;2381135;73;50653;-76
2023/01/20 15:40:56;;;;;;;;;;;;;;;18.41;58.95;101224.31;2369015;73;51456;-74
2023/01/20 15:43:58;;;;;;;;;;;;;;;18.43;58.91;101230.34;2378525;73;50692;-75
2023/01/20 15:46:59;;;;;;;;;;;;;;;18.46;58.80;101231.34;2327807;74;51142;-76
2023/01/20 15:50:01;;;;;;;;;;;;;;;18.55;58.54;101246.43;2378873;75;51532;-74
2023/01/20 15:53:05;;;;;;;;;;;;;;;18.62;58.34;101243.89;2354474;75;51512;-74